HAD weather

Halmstad Airport
Halmstad, Hallands län, Sweden

Public forecast

Using degrees Celsius for public forecast. Weather courtesy of forecast.io.

Current aviation weather report (METAR) for Halmstad Airport

Retrieved 2019/10/22 13:20 UTC (0 seconds ago):

ESMT 221320Z 27012KT 9999 FEW006 SCT024 BKN040 12/10 Q1018

Aviation forecast (TAF) for Halmstad Airport

Forecast is more than 12 hours old.

Retrieved 2017/04/24 06:33 UTC (2 years ago):

TAF ESMT 240513Z 2406/2506 22018KT 9999 BKN018 TEMPO 2406/2413 22018G30KT 4000 RADZ BKN008 TEMPO 2413/2415 24020G30KT 4000 SHRA BKN014 SCT020CB